Terminal Aerodrome Forecast
Issued by NWS

Home | Current Version | Previous Version | Text Only | Print | Product List | Glossary On
Versions: 1 2 3 4 5 6 7 8 9 10 11 12 13 14
000
FTUS43 KAPX 221726
TAFAPN
TAF
KAPN 221726Z 2218/2318 18012G18KT P6SM SCT150
     FM230000 18010KT P6SM -SHRA OVC040
     FM230200 21009KT 4SM -SHRA OVC025
     FM230500 30006KT 2SM -SHRA BR OVC010
     FM230800 31004KT 3SM -SHRA BR OVC010=

USA.gov is the U.S. government's official web portal to all federal, state and local government web resources and services.